Terminal Aerodrome Forecast
Issued by NWS

Home | Current Version | Previous Version | Text Only | Print | Product List | Glossary On
Versions: 1 2 3 4 5 6 7 8 9 10 11 12 13 14 15 16 17
000
FTUS41 KPHI 020917 AAA
TAFMIV
TAF AMD
KMIV 020917Z 0209/0306 VRB02KT 1SM BR FEW250
      TEMPO 0209/0213 1/4SM FG VV002
     FM021400 20005KT P6SM FEW050
     FM022100 14005KT P6SM SCT050
     FM030300 VRB02KT 5SM BR FEW070=

USA.gov is the U.S. government's official web portal to all federal, state and local government web resources and services.